sensor_id;sensor_type;location;lat;lon;timestamp;pressure;altitude;pressure_sealevel;temperature;humidity
18918;BME280;9591;52.742;13.650;2022-08-25T00:00:17;101668.06;;;17.96;100.00
18918;BME280;9591;52.742;13.650;2022-08-25T00:03:08;101659.88;;;17.99;100.00
18918;BME280;9591;52.742;13.650;2022-08-25T00:05:54;101657.19;;;17.99;100.00
18918;BME280;9591;52.742;13.650;2022-08-25T00:08:42;101657.13;;;18.01;100.00
18918;BME280;9591;52.742;13.650;2022-08-25T00:11:32;101648.78;;;18.07;100.00
18918;BME280;9591;52.742;13.650;2022-08-25T00:14:24;101653.50;;;18.02;100.00
18918;BME280;9591;52.742;13.650;2022-08-25T00:17:13;101649.22;;;17.98;100.00
18918;BME280;9591;52.742;13.650;2022-08-25T00:19:59;101659.94;;;17.98;100.00
18918;BME280;9591;52.742;13.650;2022-08-25T00:22:46;101657.84;;;18.05;100.00
18918;BME280;9591;52.742;13.650;2022-08-25T00:25:33;101653.19;;;18.08;100.00
18918;BME280;9591;52.742;13.650;2022-08-25T00:28:20;101648.94;;;18.04;100.00
18918;BME280;9591;52.742;13.650;2022-08-25T00:31:12;101646.41;;;18.01;100.00
18918;BME280;9591;52.742;13.650;2022-08-25T00:33:58;101649.22;;;17.98;100.00
18918;BME280;9591;52.742;13.650;2022-08-25T00:36:45;101640.91;;;17.85;100.00
18918;BME280;9591;52.742;13.650;2022-08-25T00:39:32;101644.47;;;17.86;100.00
18918;BME280;9591;52.742;13.650;2022-08-25T00:42:19;101647.34;;;17.81;100.00
18918;BME280;9591;52.742;13.650;2022-08-25T00:45:08;101641.13;;;17.81;100.00
18918;BME280;9591;52.742;13.650;2022-08-25T00:47:56;101637.44;;;17.83;100.00
18918;BME280;9591;52.742;13.650;2022-08-25T00:50:44;101641.22;;;17.79;100.00
18918;BME280;9591;52.742;13.650;2022-08-25T00:53:31;101639.84;;;17.71;100.00
18918;BME280;9591;52.742;13.650;2022-08-25T00:56:18;101650.75;;;17.66;100.00
18918;BME280;9591;52.742;13.650;2022-08-25T00:59:06;101642.22;;;17.77;100.00
18918;BME280;9591;52.742;13.650;2022-08-25T01:01:53;101638.28;;;17.65;100.00
18918;BME280;9591;52.742;13.650;2022-08-25T01:04:43;101642.75;;;17.64;100.00
18918;BME280;9591;52.742;13.650;2022-08-25T01:07:33;101639.28;;;17.62;100.00
18918;BME280;9591;52.742;13.650;2022-08-25T01:10:23;101647.25;;;17.64;100.00
18918;BME280;9591;52.742;13.650;2022-08-25T01:13:13;101636.75;;;17.59;100.00
18918;BME280;9591;52.742;13.650;2022-08-25T01:16:02;101643.28;;;17.54;100.00
18918;BME280;9591;52.742;13.650;2022-08-25T01:18:50;101641.53;;;17.53;100.00
18918;BME280;9591;52.742;13.650;2022-08-25T01:21:40;101634.38;;;17.53;100.00
18918;BME280;9591;52.742;13.650;2022-08-25T01:24:34;101639.00;;;17.50;100.00
18918;BME280;9591;52.742;13.650;2022-08-25T01:27:22;101638.19;;;17.48;100.00
18918;BME280;9591;52.742;13.650;2022-08-25T01:30:09;101640.66;;;17.52;100.00
18918;BME280;9591;52.742;13.650;2022-08-25T01:32:56;101644.56;;;17.45;100.00
18918;BME280;9591;52.742;13.650;2022-08-25T01:35:43;101637.31;;;17.47;100.00
18918;BME280;9591;52.742;13.650;2022-08-25T01:38:32;101635.53;;;17.48;100.00
18918;BME280;9591;52.742;13.650;2022-08-25T01:41:21;101641.88;;;17.45;100.00
18918;BME280;9591;52.742;13.650;2022-08-25T01:44:15;101639.00;;;17.50;100.00
18918;BME280;9591;52.742;13.650;2022-08-25T01:47:03;101642.03;;;17.42;100.00
18918;BME280;9591;52.742;13.650;2022-08-25T01:49:50;101636.53;;;17.45;100.00
18918;BME280;9591;52.742;13.650;2022-08-25T01:52:45;101624.75;;;17.30;100.00
18918;BME280;9591;52.742;13.650;2022-08-25T01:55:34;101636.88;;;17.37;100.00
18918;BME280;9591;52.742;13.650;2022-08-25T01:58:39;101638.69;;;17.37;100.00
18918;BME280;9591;52.742;13.650;2022-08-25T02:01:26;101633.41;;;17.35;100.00
18918;BME280;9591;52.742;13.650;2022-08-25T02:04:12;101629.44;;;17.44;100.00
18918;BME280;9591;52.742;13.650;2022-08-25T02:07:01;101630.66;;;17.37;100.00
18918;BME280;9591;52.742;13.650;2022-08-25T02:09:48;101631.47;;;17.39;100.00
18918;BME280;9591;52.742;13.650;2022-08-25T02:12:36;101623.28;;;17.42;100.00
18918;BME280;9591;52.742;13.650;2022-08-25T02:15:24;101624.16;;;17.43;100.00
18918;BME280;9591;52.742;13.650;2022-08-25T02:18:11;101615.84;;;17.49;100.00
18918;BME280;9591;52.742;13.650;2022-08-25T02:20:58;101618.22;;;17.55;100.00
18918;BME280;9591;52.742;13.650;2022-08-25T02:23:45;101614.75;;;17.53;100.00
18918;BME280;9591;52.742;13.650;2022-08-25T02:26:32;101607.44;;;17.56;100.00
18918;BME280;9591;52.742;13.650;2022-08-25T02:29:20;101604.69;;;17.58;100.00
18918;BME280;9591;52.742;13.650;2022-08-25T02:32:07;101602.53;;;17.66;100.00
18918;BME280;9591;52.742;13.650;2022-08-25T02:34:54;101604.22;;;17.68;100.00
18918;BME280;9591;52.742;13.650;2022-08-25T02:37:41;101599.66;;;17.71;100.00
18918;BME280;9591;52.742;13.650;2022-08-25T02:40:28;101596.81;;;17.74;100.00
18918;BME280;9591;52.742;13.650;2022-08-25T02:43:15;101598.56;;;17.75;100.00
18918;BME280;9591;52.742;13.650;2022-08-25T02:46:03;101607.31;;;17.78;100.00
18918;BME280;9591;52.742;13.650;2022-08-25T02:48:51;101600.22;;;17.77;100.00
18918;BME280;9591;52.742;13.650;2022-08-25T02:51:38;101610.66;;;17.83;100.00
18918;BME280;9591;52.742;13.650;2022-08-25T02:54:25;101605.44;;;17.80;100.00
18918;BME280;9591;52.742;13.650;2022-08-25T02:57:12;101618.53;;;17.86;100.00
18918;BME280;9591;52.742;13.650;2022-08-25T03:00:00;101608.59;;;17.88;100.00
18918;BME280;9591;52.742;13.650;2022-08-25T03:02:48;101603.97;;;17.92;100.00
18918;BME280;9591;52.742;13.650;2022-08-25T03:05:35;101608.69;;;17.87;100.00
18918;BME280;9591;52.742;13.650;2022-08-25T03:08:23;101597.31;;;17.82;100.00
18918;BME280;9591;52.742;13.650;2022-08-25T03:11:10;101595.66;;;17.79;100.00
18918;BME280;9591;52.742;13.650;2022-08-25T03:13:56;101590.28;;;17.79;100.00
18918;BME280;9591;52.742;13.650;2022-08-25T03:16:43;101586.59;;;17.82;100.00
18918;BME280;9591;52.742;13.650;2022-08-25T03:19:32;101596.44;;;17.81;100.00
18918;BME280;9591;52.742;13.650;2022-08-25T03:22:19;101577.47;;;17.86;100.00
18918;BME280;9591;52.742;13.650;2022-08-25T03:25:07;101580.31;;;17.83;100.00
18918;BME280;9591;52.742;13.650;2022-08-25T03:28:12;101584.19;;;17.94;100.00
18918;BME280;9591;52.742;13.650;2022-08-25T03:30:59;101582.78;;;18.05;100.00
18918;BME280;9591;52.742;13.650;2022-08-25T03:33:46;101587.59;;;17.98;100.00
18918;BME280;9591;52.742;13.650;2022-08-25T03:36:34;101588.59;;;17.95;100.00
18918;BME280;9591;52.742;13.650;2022-08-25T03:39:23;101589.63;;;17.93;100.00
18918;BME280;9591;52.742;13.650;2022-08-25T03:42:10;101592.00;;;17.99;100.00
18918;BME280;9591;52.742;13.650;2022-08-25T03:44:57;101585.06;;;17.95;100.00
18918;BME280;9591;52.742;13.650;2022-08-25T03:47:45;101586.72;;;17.97;100.00
18918;BME280;9591;52.742;13.650;2022-08-25T03:50:32;101579.47;;;17.99;100.00
18918;BME280;9591;52.742;13.650;2022-08-25T03:53:20;101579.41;;;18.01;100.00
18918;BME280;9591;52.742;13.650;2022-08-25T03:56:07;101582.00;;;18.02;100.00
18918;BME280;9591;52.742;13.650;2022-08-25T03:58:54;101582.06;;;18.01;100.00
18918;BME280;9591;52.742;13.650;2022-08-25T04:01:43;101586.19;;;18.08;100.00
18918;BME280;9591;52.742;13.650;2022-08-25T04:04:30;101594.63;;;18.18;100.00
18918;BME280;9591;52.742;13.650;2022-08-25T04:07:17;101594.16;;;18.27;100.00
18918;BME280;9591;52.742;13.650;2022-08-25T04:10:06;101589.88;;;18.23;100.00
18918;BME280;9591;52.742;13.650;2022-08-25T04:12:54;101580.03;;;18.06;100.00
18918;BME280;9591;52.742;13.650;2022-08-25T04:15:41;101591.31;;;18.13;100.00
18918;BME280;9591;52.742;13.650;2022-08-25T04:18:27;101582.84;;;18.20;100.00
18918;BME280;9591;52.742;13.650;2022-08-25T04:21:17;101595.81;;;18.29;100.00
18918;BME280;9591;52.742;13.650;2022-08-25T04:24:05;101589.00;;;18.22;100.00
18918;BME280;9591;52.742;13.650;2022-08-25T04:26:54;101597.75;;;18.26;100.00
18918;BME280;9591;52.742;13.650;2022-08-25T04:29:41;101587.91;;;18.26;100.00
18918;BME280;9591;52.742;13.650;2022-08-25T04:32:28;101592.41;;;18.26;100.00
18918;BME280;9591;52.742;13.650;2022-08-25T04:35:16;101585.78;;;18.33;100.00
18918;BME280;9591;52.742;13.650;2022-08-25T04:38:03;101595.56;;;18.34;100.00
18918;BME280;9591;52.742;13.650;2022-08-25T04:40:54;101597.75;;;18.26;100.00
18918;BME280;9591;52.742;13.650;2022-08-25T04:43:43;101596.03;;;18.42;100.00
18918;BME280;9591;52.742;13.650;2022-08-25T04:46:32;101596.13;;;18.41;100.00
18918;BME280;9591;52.742;13.650;2022-08-25T04:49:19;101599.44;;;18.46;100.00
18918;BME280;9591;52.742;13.650;2022-08-25T04:52:06;101599.03;;;18.36;100.00
18918;BME280;9591;52.742;13.650;2022-08-25T04:54:58;101598.31;;;18.32;100.00
18918;BME280;9591;52.742;13.650;2022-08-25T04:57:45;101594.78;;;18.49;100.00
18918;BME280;9591;52.742;13.650;2022-08-25T05:00:35;101599.13;;;18.52;100.00
18918;BME280;9591;52.742;13.650;2022-08-25T05:03:22;101601.34;;;18.44;100.00
18918;BME280;9591;52.742;13.650;2022-08-25T05:06:09;101596.75;;;18.46;100.00
18918;BME280;9591;52.742;13.650;2022-08-25T05:09:02;101590.91;;;18.38;100.00
18918;BME280;9591;52.742;13.650;2022-08-25T05:11:49;101591.41;;;18.46;100.00
18918;BME280;9591;52.742;13.650;2022-08-25T05:14:36;101594.78;;;18.49;100.00
18918;BME280;9591;52.742;13.650;2022-08-25T05:17:24;101597.53;;;18.48;100.00
18918;BME280;9591;52.742;13.650;2022-08-25T05:20:12;101597.16;;;18.55;100.00
18918;BME280;9591;52.742;13.650;2022-08-25T05:22:59;101600.84;;;18.53;100.00
18918;BME280;9591;52.742;13.650;2022-08-25T05:25:46;101587.38;;;18.54;100.00
18918;BME280;9591;52.742;13.650;2022-08-25T05:28:33;101605.28;;;18.54;100.00
18918;BME280;9591;52.742;13.650;2022-08-25T05:31:21;101599.44;;;18.46;100.00
18918;BME280;9591;52.742;13.650;2022-08-25T05:34:10;101617.38;;;18.62;100.00
18918;BME280;9591;52.742;13.650;2022-08-25T05:36:56;101615.66;;;18.61;100.00
18918;BME280;9591;52.742;13.650;2022-08-25T05:39:44;101614.63;;;18.64;100.00
18918;BME280;9591;52.742;13.650;2022-08-25T05:42:31;101613.75;;;18.63;100.00
18918;BME280;9591;52.742;13.650;2022-08-25T05:45:18;101620.69;;;18.67;100.00
18918;BME280;9591;52.742;13.650;2022-08-25T05:48:04;101611.16;;;18.62;100.00
18918;BME280;9591;52.742;13.650;2022-08-25T05:50:54;101609.09;;;18.67;100.00
18918;BME280;9591;52.742;13.650;2022-08-25T05:53:44;101619.81;;;18.67;100.00
18918;BME280;9591;52.742;13.650;2022-08-25T05:56:31;101614.22;;;18.72;100.00
18918;BME280;9591;52.742;13.650;2022-08-25T05:59:17;101620.53;;;18.88;100.00
18918;BME280;9591;52.742;13.650;2022-08-25T06:02:04;101615.31;;;18.85;100.00
18918;BME280;9591;52.742;13.650;2022-08-25T06:05:10;101622.75;;;18.80;100.00
18918;BME280;9591;52.742;13.650;2022-08-25T06:07:59;101620.44;;;18.89;100.00
18918;BME280;9591;52.742;13.650;2022-08-25T06:10:50;101623.66;;;18.96;100.00
18918;BME280;9591;52.742;13.650;2022-08-25T06:13:37;101623.75;;;18.94;100.00
18918;BME280;9591;52.742;13.650;2022-08-25T06:16:24;101623.03;;;18.91;100.00
18918;BME280;9591;52.742;13.650;2022-08-25T06:19:11;101620.13;;;18.95;100.00
18918;BME280;9591;52.742;13.650;2022-08-25T06:21:58;101613.31;;;19.06;100.00
18918;BME280;9591;52.742;13.650;2022-08-25T06:24:46;101613.31;;;19.06;100.00
18918;BME280;9591;52.742;13.650;2022-08-25T06:27:33;101618.84;;;19.03;100.00
18918;BME280;9591;52.742;13.650;2022-08-25T06:30:22;101609.56;;;19.08;100.00
18918;BME280;9591;52.742;13.650;2022-08-25T06:33:13;101618.44;;;19.26;100.00
18918;BME280;9591;52.742;13.650;2022-08-25T06:36:00;101607.25;;;19.18;100.00
18918;BME280;9591;52.742;13.650;2022-08-25T06:38:47;101614.81;;;19.27;100.00
18918;BME280;9591;52.742;13.650;2022-08-25T06:41:36;101607.38;;;19.32;100.00
18918;BME280;9591;52.742;13.650;2022-08-25T06:44:23;101609.63;;;19.40;100.00
18918;BME280;9591;52.742;13.650;2022-08-25T06:47:10;101607.22;;;19.51;100.00
18918;BME280;9591;52.742;13.650;2022-08-25T06:49:57;101614.97;;;19.57;100.00
18918;BME280;9591;52.742;13.650;2022-08-25T06:52:44;101615.66;;;19.60;100.00
18918;BME280;9591;52.742;13.650;2022-08-25T06:55:30;101622.88;;;19.60;100.00
18918;BME280;9591;52.742;13.650;2022-08-25T06:58:20;101619.22;;;19.61;100.00
18918;BME280;9591;52.742;13.650;2022-08-25T07:01:11;101619.91;;;19.64;100.00
18918;BME280;9591;52.742;13.650;2022-08-25T07:04:05;101622.78;;;19.61;100.00
18918;BME280;9591;52.742;13.650;2022-08-25T07:06:57;101620.28;;;19.74;100.00
18918;BME280;9591;52.742;13.650;2022-08-25T07:09:44;101621.13;;;19.75;100.00
18918;BME280;9591;52.742;13.650;2022-08-25T07:12:31;101618.63;;;19.72;100.00
18918;BME280;9591;52.742;13.650;2022-08-25T07:15:20;101614.03;;;19.74;100.00
18918;BME280;9591;52.742;13.650;2022-08-25T07:18:07;101620.19;;;19.76;100.00
18918;BME280;9591;52.742;13.650;2022-08-25T07:20:54;101615.41;;;19.81;100.00
18918;BME280;9591;52.742;13.650;2022-08-25T07:23:40;101615.41;;;19.81;100.00
18918;BME280;9591;52.742;13.650;2022-08-25T07:26:29;101609.00;;;19.83;100.00
18918;BME280;9591;52.742;13.650;2022-08-25T07:29:24;101610.69;;;20.00;100.00
18918;BME280;9591;52.742;13.650;2022-08-25T07:32:18;101603.03;;;20.08;100.00
18918;BME280;9591;52.742;13.650;2022-08-25T07:35:05;101602.19;;;20.08;100.00
18918;BME280;9591;52.742;13.650;2022-08-25T07:38:05;101604.88;;;20.08;100.00
18918;BME280;9591;52.742;13.650;2022-08-25T07:41:00;101605.38;;;20.14;100.00
18918;BME280;9591;52.742;13.650;2022-08-25T07:43:46;101602.50;;;20.17;100.00
18918;BME280;9591;52.742;13.650;2022-08-25T07:46:35;101595.03;;;20.22;100.00
18918;BME280;9591;52.742;13.650;2022-08-25T07:49:24;101599.00;;;20.31;100.00
18918;BME280;9591;52.742;13.650;2022-08-25T07:52:24;101611.88;;;20.26;100.00
18918;BME280;9591;52.742;13.650;2022-08-25T07:55:10;101606.03;;;20.34;100.00
18918;BME280;9591;52.742;13.650;2022-08-25T07:58:03;101604.13;;;20.36;100.00
18918;BME280;9591;52.742;13.650;2022-08-25T08:00:50;101607.53;;;20.39;100.00
18918;BME280;9591;52.742;13.650;2022-08-25T08:03:37;101600.56;;;20.51;100.00
18918;BME280;9591;52.742;13.650;2022-08-25T08:06:38;101594.72;;;20.58;100.00
18918;BME280;9591;52.742;13.650;2022-08-25T08:09:27;101593.09;;;20.84;100.00
18918;BME280;9591;52.742;13.650;2022-08-25T08:12:15;101592.72;;;20.90;100.00
18918;BME280;9591;52.742;13.650;2022-08-25T08:15:03;101601.38;;;20.95;100.00
18918;BME280;9591;52.742;13.650;2022-08-25T08:17:54;101591.09;;;21.02;100.00
18918;BME280;9591;52.742;13.650;2022-08-25T08:20:43;101592.16;;;21.00;100.00
18918;BME280;9591;52.742;13.650;2022-08-25T08:23:31;101590.91;;;21.05;100.00
18918;BME280;9591;52.742;13.650;2022-08-25T08:26:19;101597.53;;;21.00;100.00
18918;BME280;9591;52.742;13.650;2022-08-25T08:29:29;101592.81;;;21.03;100.00
18918;BME280;9591;52.742;13.650;2022-08-25T08:32:15;101589.06;;;21.06;100.00
18918;BME280;9591;52.742;13.650;2022-08-25T08:35:03;101589.66;;;21.11;100.00
18918;BME280;9591;52.742;13.650;2022-08-25T08:37:52;101588.53;;;21.29;100.00
18918;BME280;9591;52.742;13.650;2022-08-25T08:40:54;101587.25;;;21.20;100.00
18918;BME280;9591;52.742;13.650;2022-08-25T08:44:04;101587.16;;;21.36;100.00
18918;BME280;9591;52.742;13.650;2022-08-25T08:46:58;101581.50;;;21.41;100.00
18918;BME280;9591;52.742;13.650;2022-08-25T08:50:00;101590.03;;;21.62;100.00
18918;BME280;9591;52.742;13.650;2022-08-25T08:52:51;101584.72;;;21.60;100.00
18918;BME280;9591;52.742;13.650;2022-08-25T08:55:43;101578.28;;;21.63;100.00
18918;BME280;9591;52.742;13.650;2022-08-25T08:58:40;101570.22;;;21.75;100.00
18918;BME280;9591;52.742;13.650;2022-08-25T09:01:30;101572.25;;;21.99;100.00
18918;BME280;9591;52.742;13.650;2022-08-25T09:04:22;101567.91;;;22.10;100.00
18918;BME280;9591;52.742;13.650;2022-08-25T09:07:16;101565.22;;;22.10;100.00
18918;BME280;9591;52.742;13.650;2022-08-25T09:10:06;101576.06;;;22.36;100.00
18918;BME280;9591;52.742;13.650;2022-08-25T09:13:02;101570.59;;;22.75;100.00
18918;BME280;9591;52.742;13.650;2022-08-25T09:16:04;101571.50;;;23.01;100.00
18918;BME280;9591;52.742;13.650;2022-08-25T09:19:31;101565.84;;;23.17;100.00
18918;BME280;9591;52.742;13.650;2022-08-25T09:22:35;101568.13;;;23.23;100.00
18918;BME280;9591;52.742;13.650;2022-08-25T09:25:32;101567.06;;;23.49;100.00
18918;BME280;9591;52.742;13.650;2022-08-25T09:28:42;101558.19;;;23.47;100.00
18918;BME280;9591;52.742;13.650;2022-08-25T09:31:37;101556.34;;;23.24;100.00
18918;BME280;9591;52.742;13.650;2022-08-25T09:34:29;101554.84;;;22.95;100.00
18918;BME280;9591;52.742;13.650;2022-08-25T09:37:18;101549.34;;;22.96;100.00
18918;BME280;9591;52.742;13.650;2022-08-25T09:40:07;101549.78;;;23.03;100.00
18918;BME280;9591;52.742;13.650;2022-08-25T09:42:57;101541.84;;;23.25;100.00
18918;BME280;9591;52.742;13.650;2022-08-25T09:45:49;101540.09;;;23.37;100.00
18918;BME280;9591;52.742;13.650;2022-08-25T09:48:48;101536.16;;;23.53;100.00
18918;BME280;9591;52.742;13.650;2022-08-25T09:51:41;101533.00;;;23.83;100.00
18918;BME280;9591;52.742;13.650;2022-08-25T09:54:27;101532.44;;;23.91;100.00
18918;BME280;9591;52.742;13.650;2022-08-25T09:57:31;101524.19;;;23.93;100.00
18918;BME280;9591;52.742;13.650;2022-08-25T10:00:20;101529.84;;;23.90;100.00
18918;BME280;9591;52.742;13.650;2022-08-25T10:03:16;101528.22;;;23.87;100.00
18918;BME280;9591;52.742;13.650;2022-08-25T10:06:12;101533.53;;;23.89;100.00
18918;BME280;9591;52.742;13.650;2022-08-25T10:09:03;101526.31;;;24.00;100.00
18918;BME280;9591;52.742;13.650;2022-08-25T10:11:50;101520.09;;;24.11;100.00
18918;BME280;9591;52.742;13.650;2022-08-25T10:14:42;101513.13;;;24.19;100.00
18918;BME280;9591;52.742;13.650;2022-08-25T10:17:32;101512.13;;;24.21;100.00
18918;BME280;9591;52.742;13.650;2022-08-25T10:20:23;101506.72;;;24.21;100.00
18918;BME280;9591;52.742;13.650;2022-08-25T10:23:17;101511.03;;;24.23;100.00
18918;BME280;9591;52.742;13.650;2022-08-25T10:26:09;101510.31;;;24.32;100.00
18918;BME280;9591;52.742;13.650;2022-08-25T10:29:04;101501.25;;;24.44;100.00
18918;BME280;9591;52.742;13.650;2022-08-25T10:31:57;101511.84;;;24.59;100.00
18918;BME280;9591;52.742;13.650;2022-08-25T10:34:47;101512.00;;;24.68;100.00
18918;BME280;9591;52.742;13.650;2022-08-25T10:37:41;101506.34;;;24.71;100.00
18918;BME280;9591;52.742;13.650;2022-08-25T10:40:35;101506.13;;;24.97;100.00
18918;BME280;9591;52.742;13.650;2022-08-25T10:43:31;101506.22;;;25.17;100.00
18918;BME280;9591;52.742;13.650;2022-08-25T10:46:30;101510.53;;;25.20;100.00
18918;BME280;9591;52.742;13.650;2022-08-25T10:49:26;101496.03;;;25.10;100.00
18918;BME280;9591;52.742;13.650;2022-08-25T10:52:22;101496.78;;;25.01;100.00
18918;BME280;9591;52.742;13.650;2022-08-25T10:55:19;101492.31;;;24.89;100.00
18918;BME280;9591;52.742;13.650;2022-08-25T10:58:19;101488.63;;;24.90;100.00
18918;BME280;9591;52.742;13.650;2022-08-25T11:01:22;101480.03;;;25.07;100.00
18918;BME280;9591;52.742;13.650;2022-08-25T11:04:33;101481.06;;;25.27;100.00
18918;BME280;9591;52.742;13.650;2022-08-25T11:07:26;101468.44;;;25.48;100.00
18918;BME280;9591;52.742;13.650;2022-08-25T11:10:19;101475.72;;;25.47;100.00
18918;BME280;9591;52.742;13.650;2022-08-25T11:13:12;101473.00;;;25.47;100.00
18918;BME280;9591;52.742;13.650;2022-08-25T11:16:08;101468.84;;;25.32;100.00
18918;BME280;9591;52.742;13.650;2022-08-25T11:19:09;101457.50;;;25.38;100.00
18918;BME280;9591;52.742;13.650;2022-08-25T11:22:06;101461.66;;;25.54;100.00
18918;BME280;9591;52.742;13.650;2022-08-25T11:25:05;101460.41;;;25.69;100.00
18918;BME280;9591;52.742;13.650;2022-08-25T11:28:05;101459.28;;;25.71;100.00
18918;BME280;9591;52.742;13.650;2022-08-25T11:30:57;101453.59;;;25.74;100.00
18918;BME280;9591;52.742;13.650;2022-08-25T11:33:44;101455.84;;;25.69;100.00
18918;BME280;9591;52.742;13.650;2022-08-25T11:36:33;101454.72;;;25.72;100.00
18918;BME280;9591;52.742;13.650;2022-08-25T11:39:36;101447.22;;;25.96;100.00
18918;BME280;9591;52.742;13.650;2022-08-25T11:42:34;101442.09;;;25.82;100.00
18918;BME280;9591;52.742;13.650;2022-08-25T11:45:44;101445.38;;;25.65;100.00
18918;BME280;9591;52.742;13.650;2022-08-25T11:48:44;101444.69;;;25.40;100.00
18918;BME280;9591;52.742;13.650;2022-08-25T11:51:41;101440.03;;;25.31;100.00
18918;BME280;9591;52.742;13.650;2022-08-25T11:54:33;101440.47;;;25.47;100.00
18918;BME280;9591;52.742;13.650;2022-08-25T11:57:26;101441.56;;;25.56;100.00
18918;BME280;9591;52.742;13.650;2022-08-25T12:00:14;;;;25.60;
18918;BME280;9591;52.742;13.650;2022-08-25T12:03:51;101432.06;;;25.94;100.00
18918;BME280;9591;52.742;13.650;2022-08-25T12:10:22;101423.69;;;26.06;100.00
18918;BME280;9591;52.742;13.650;2022-08-25T12:13:38;101421.44;;;26.11;100.00
18918;BME280;9591;52.742;13.650;2022-08-25T12:16:39;101412.69;;;26.08;100.00
18918;BME280;9591;52.742;13.650;2022-08-25T12:19:51;101413.03;;;26.14;100.00
18918;BME280;9591;52.742;13.650;2022-08-25T12:22:42;101410.19;;;26.16;100.00
18918;BME280;9591;52.742;13.650;2022-08-25T12:25:44;101413.69;;;26.07;100.00
18918;BME280;9591;52.742;13.650;2022-08-25T12:28:41;101406.81;;;25.82;100.00
18918;BME280;9591;52.742;13.650;2022-08-25T12:31:44;101400.00;;;25.56;100.00
18918;BME280;9591;52.742;13.650;2022-08-25T12:34:51;101395.41;;;25.35;100.00
18918;BME280;9591;52.742;13.650;2022-08-25T12:37:53;101391.28;;;25.52;100.00
18918;BME280;9591;52.742;13.650;2022-08-25T12:40:53;101398.47;;;25.74;100.00
18918;BME280;9591;52.742;13.650;2022-08-25T12:43:46;101391.13;;;25.65;100.00
18918;BME280;9591;52.742;13.650;2022-08-25T12:46:42;101388.19;;;25.57;100.00
18918;BME280;9591;52.742;13.650;2022-08-25T12:49:33;101382.72;;;25.68;100.00
18918;BME280;9591;52.742;13.650;2022-08-25T12:52:22;101386.38;;;25.78;100.00
18918;BME280;9591;52.742;13.650;2022-08-25T12:55:12;101382.63;;;25.90;100.00
18918;BME280;9591;52.742;13.650;2022-08-25T12:58:01;101375.94;;;26.25;100.00
18918;BME280;9591;52.742;13.650;2022-08-25T13:01:02;101369.63;;;26.45;99.19
18918;BME280;9591;52.742;13.650;2022-08-25T13:04:36;101360.28;;;26.68;100.00
18918;BME280;9591;52.742;13.650;2022-08-25T13:08:12;101363.75;;;26.90;96.27
18918;BME280;9591;52.742;13.650;2022-08-25T13:11:08;101370.03;;;26.81;95.59
18918;BME280;9591;52.742;13.650;2022-08-25T13:14:04;101365.59;;;26.89;96.29
18918;BME280;9591;52.742;13.650;2022-08-25T13:16:56;101373.97;;;27.07;92.20
18918;BME280;9591;52.742;13.650;2022-08-25T13:19:43;101363.69;;;27.30;97.33
18918;BME280;9591;52.742;13.650;2022-08-25T13:22:29;101359.41;;;27.27;90.17
18918;BME280;9591;52.742;13.650;2022-08-25T13:25:21;101361.97;;;27.38;95.97
18918;BME280;9591;52.742;13.650;2022-08-25T13:28:22;101362.25;;;27.26;93.05
18918;BME280;9591;52.742;13.650;2022-08-25T13:31:15;101364.19;;;26.85;96.97
18918;BME280;9591;52.742;13.650;2022-08-25T13:34:04;101366.13;;;26.64;99.11
18918;BME280;9591;52.742;13.650;2022-08-25T13:36:52;101356.22;;;26.53;98.24
18918;BME280;9591;52.742;13.650;2022-08-25T13:40:20;101343.16;;;26.37;99.18
18918;BME280;9591;52.742;13.650;2022-08-25T13:43:32;101345.53;;;26.61;96.80
18918;BME280;9591;52.742;13.650;2022-08-25T13:46:22;101339.03;;;26.83;94.74
18918;BME280;9591;52.742;13.650;2022-08-25T13:49:28;101336.91;;;26.96;93.69
18918;BME280;9591;52.742;13.650;2022-08-25T13:52:25;101334.34;;;27.04;91.45
18918;BME280;9591;52.742;13.650;2022-08-25T13:55:19;101322.91;;;27.20;92.34
18918;BME280;9591;52.742;13.650;2022-08-25T13:58:16;101315.75;;;27.19;92.77
18918;BME280;9591;52.742;13.650;2022-08-25T14:01:16;101329.78;;;27.34;92.04
18918;BME280;9591;52.742;13.650;2022-08-25T14:04:30;101318.19;;;27.41;94.36
18918;BME280;9591;52.742;13.650;2022-08-25T14:07:27;101330.06;;;27.40;92.32
18918;BME280;9591;52.742;13.650;2022-08-25T14:10:31;101323.91;;;27.19;91.12
18918;BME280;9591;52.742;13.650;2022-08-25T14:13:29;101324.97;;;26.88;92.89
18918;BME280;9591;52.742;13.650;2022-08-25T14:16:22;101321.84;;;26.83;94.89
18918;BME280;9591;52.742;13.650;2022-08-25T14:19:14;101319.00;;;26.84;89.11
18918;BME280;9591;52.742;13.650;2022-08-25T14:22:04;101316.41;;;26.92;91.92
18918;BME280;9591;52.742;13.650;2022-08-25T14:24:52;101301.84;;;26.84;91.76
18918;BME280;9591;52.742;13.650;2022-08-25T14:27:41;101299.66;;;26.87;94.83
18918;BME280;9591;52.742;13.650;2022-08-25T14:30:50;101297.66;;;26.89;89.83
18918;BME280;9591;52.742;13.650;2022-08-25T14:33:42;101303.28;;;26.97;92.14
18918;BME280;9591;52.742;13.650;2022-08-25T14:36:35;101293.28;;;26.98;91.27
18918;BME280;9591;52.742;13.650;2022-08-25T14:39:29;101292.44;;;27.07;92.73
18918;BME280;9591;52.742;13.650;2022-08-25T14:42:16;101281.69;;;27.15;93.54
18918;BME280;9591;52.742;13.650;2022-08-25T14:45:05;101280.13;;;27.13;96.47
18918;BME280;9591;52.742;13.650;2022-08-25T14:48:02;101278.13;;;27.24;90.63
18918;BME280;9591;52.742;13.650;2022-08-25T14:50:57;101278.25;;;27.13;89.96
18918;BME280;9591;52.742;13.650;2022-08-25T14:53:45;101273.81;;;27.12;93.08